createdAt,value
2022-12-11T00:01:14.260Z,9.90
2022-12-11T00:03:41.616Z,10.57
2022-12-11T00:06:10.448Z,10.60
2022-12-11T00:08:37.587Z,9.95
2022-12-11T00:11:05.323Z,9.30
2022-12-11T00:13:32.435Z,9.45
2022-12-11T00:15:59.585Z,10.25
2022-12-11T00:18:26.460Z,10.60
2022-12-11T00:20:53.376Z,11.07
2022-12-11T00:23:20.225Z,11.20
2022-12-11T00:25:48.213Z,10.73
2022-12-11T00:28:19.866Z,10.15
2022-12-11T00:30:46.934Z,9.30
2022-12-11T00:33:15.001Z,10.33
2022-12-11T00:35:44.941Z,9.20
2022-12-11T00:38:17.250Z,9.27
2022-12-11T00:40:44.642Z,8.82
2022-12-11T00:43:11.731Z,8.30
2022-12-11T00:45:41.247Z,7.95
2022-12-11T00:48:08.949Z,8.80
2022-12-11T00:50:36.761Z,8.40
2022-12-11T00:53:05.118Z,8.23
2022-12-11T00:55:32.423Z,8.27
2022-12-11T00:57:59.246Z,8.20
2022-12-11T01:00:26.133Z,8.02
2022-12-11T01:02:52.995Z,7.70
2022-12-11T01:05:19.839Z,8.50
2022-12-11T01:07:46.625Z,8.40
2022-12-11T01:10:26.178Z,8.25
2022-12-11T01:13:05.695Z,9.07
2022-12-11T01:15:41.328Z,7.97
2022-12-11T01:18:13.885Z,8.85
2022-12-11T01:20:42.679Z,8.32
2022-12-11T01:23:12.997Z,8.80
2022-12-11T01:25:40.407Z,8.00
2022-12-11T01:28:07.763Z,8.50
2022-12-11T01:30:35.081Z,9.27
2022-12-11T01:33:01.897Z,8.27
2022-12-11T01:35:29.302Z,9.70
2022-12-11T01:37:56.355Z,9.30
2022-12-11T01:40:23.592Z,9.40
2022-12-11T01:42:50.427Z,9.20
2022-12-11T01:45:28.991Z,8.82
2022-12-11T01:48:27.284Z,8.52
2022-12-11T01:50:57.672Z,8.55
2022-12-11T01:53:35.118Z,8.60
2022-12-11T01:56:03.087Z,8.50
2022-12-11T01:58:38.521Z,8.95
2022-12-11T02:01:05.587Z,8.68
2022-12-11T02:03:32.637Z,9.85
2022-12-11T02:06:03.365Z,10.27
2022-12-11T02:08:30.250Z,13.00
2022-12-11T02:11:18.506Z,12.50
2022-12-11T02:14:05.455Z,12.40
2022-12-11T02:16:50.673Z,11.77
2022-12-11T02:19:44.999Z,11.52
2022-12-11T02:22:17.943Z,11.02
2022-12-11T02:24:56.810Z,9.90
2022-12-11T02:27:32.724Z,9.65
2022-12-11T02:30:10.797Z,9.85
2022-12-11T02:32:39.970Z,8.98
2022-12-11T02:35:21.272Z,8.98
2022-12-11T02:37:52.729Z,8.60
2022-12-11T02:40:22.937Z,9.43
2022-12-11T02:42:52.195Z,9.10
2022-12-11T02:45:20.592Z,8.30
2022-12-11T02:47:48.974Z,8.60
2022-12-11T02:50:20.818Z,8.88
2022-12-11T02:52:50.823Z,9.20
2022-12-11T02:55:18.470Z,8.50
2022-12-11T02:57:56.506Z,8.50
2022-12-11T03:00:23.449Z,9.00
2022-12-11T03:02:50.355Z,9.10
2022-12-11T03:05:17.214Z,9.40
2022-12-11T03:07:44.829Z,9.70
2022-12-11T03:10:15.426Z,9.45
2022-12-11T03:12:47.039Z,9.73
2022-12-11T03:15:20.386Z,9.90
2022-12-11T03:18:05.120Z,10.30
2022-12-11T03:20:47.477Z,9.30
2022-12-11T03:23:38.315Z,9.35
2022-12-11T03:26:17.147Z,11.55
2022-12-11T03:29:04.554Z,9.90
2022-12-11T03:31:45.699Z,9.52
2022-12-11T03:34:21.923Z,10.20
2022-12-11T03:36:52.143Z,10.40
2022-12-11T03:39:25.787Z,11.10
2022-12-11T03:41:54.723Z,11.30
2022-12-11T03:44:24.131Z,10.90
2022-12-11T03:46:53.154Z,10.70
2022-12-11T03:49:24.379Z,10.40
2022-12-11T03:51:54.472Z,10.23
2022-12-11T03:54:23.002Z,10.20
2022-12-11T03:56:53.549Z,10.20
2022-12-11T03:59:20.561Z,10.30
2022-12-11T04:01:47.466Z,9.77
2022-12-11T04:04:14.545Z,10.50
2022-12-11T04:06:41.474Z,10.33
2022-12-11T04:09:08.475Z,11.20
2022-12-11T04:11:35.339Z,10.52
2022-12-11T04:14:26.113Z,11.05
2022-12-11T04:16:53.519Z,10.52
2022-12-11T04:19:40.575Z,11.15
2022-12-11T04:22:26.381Z,10.10
2022-12-11T04:24:53.101Z,10.80
2022-12-11T04:27:39.065Z,10.98
2022-12-11T04:30:08.962Z,10.05
2022-12-11T04:32:35.753Z,11.23
2022-12-11T04:35:02.807Z,10.95
2022-12-11T04:37:29.620Z,10.70
2022-12-11T04:39:56.417Z,12.25
2022-12-11T04:42:23.298Z,11.68
2022-12-11T04:44:50.032Z,11.27
2022-12-11T04:47:17.064Z,11.80
2022-12-11T04:49:43.858Z,12.02
2022-12-11T04:52:10.828Z,11.55
2022-12-11T04:54:37.601Z,12.00
2022-12-11T04:57:04.471Z,11.43
2022-12-11T04:59:32.654Z,11.50
2022-12-11T05:01:59.739Z,12.18
2022-12-11T05:04:30.393Z,11.57
2022-12-11T05:06:57.159Z,11.38
2022-12-11T05:09:23.939Z,11.70
2022-12-11T05:11:50.670Z,11.80
2022-12-11T05:14:17.882Z,12.13
2022-12-11T05:16:45.169Z,12.35
2022-12-11T05:19:11.966Z,11.75
2022-12-11T05:21:38.822Z,11.35
2022-12-11T05:24:06.178Z,10.90
2022-12-11T05:26:33.028Z,11.32
2022-12-11T05:28:59.810Z,11.70
2022-12-11T05:31:27.799Z,12.13
2022-12-11T05:33:54.638Z,11.82
2022-12-11T05:36:30.099Z,11.75
2022-12-11T05:38:58.168Z,10.50
2022-12-11T05:41:27.073Z,11.23
2022-12-11T05:43:54.249Z,11.30
2022-12-11T05:46:23.567Z,10.45
2022-12-11T05:48:53.967Z,11.15
2022-12-11T05:51:21.342Z,9.80
2022-12-11T05:53:50.419Z,9.80
2022-12-11T05:56:20.973Z,9.65
2022-12-11T05:58:49.150Z,9.68
2022-12-11T06:01:22.274Z,9.75
2022-12-11T06:03:49.209Z,9.75
2022-12-11T06:06:16.709Z,9.60
2022-12-11T06:08:43.643Z,9.02
2022-12-11T06:11:13.355Z,9.10
2022-12-11T06:13:40.279Z,9.70
2022-12-11T06:16:08.658Z,9.50
2022-12-11T06:18:39.891Z,9.10
2022-12-11T06:21:14.620Z,8.90
2022-12-11T06:23:41.987Z,8.88
2022-12-11T06:26:10.478Z,8.77
2022-12-11T06:28:37.514Z,9.10
2022-12-11T06:31:04.720Z,9.50
2022-12-11T06:33:31.869Z,9.38
2022-12-11T06:36:13.421Z,9.15
2022-12-11T06:38:40.386Z,8.65
2022-12-11T06:41:08.284Z,8.98
2022-12-11T06:43:37.618Z,8.98
2022-12-11T06:46:09.986Z,9.23
2022-12-11T06:48:37.015Z,8.85
2022-12-11T06:51:18.281Z,8.70
2022-12-11T06:53:45.905Z,8.30
2022-12-11T06:56:14.617Z,8.63
2022-12-11T06:58:42.871Z,8.70
2022-12-11T07:01:24.902Z,8.60
2022-12-11T07:03:57.142Z,8.30
2022-12-11T07:06:25.295Z,8.20
2022-12-11T07:08:52.506Z,8.50
2022-12-11T07:11:20.236Z,9.38
2022-12-11T07:13:47.336Z,8.80
2022-12-11T07:16:15.777Z,9.00
2022-12-11T07:18:50.397Z,9.53
2022-12-11T07:21:17.925Z,9.43
2022-12-11T07:23:44.741Z,9.38
2022-12-11T07:26:13.841Z,10.00
2022-12-11T07:28:41.457Z,10.00
2022-12-11T07:31:28.874Z,9.40
2022-12-11T07:33:57.637Z,9.70
2022-12-11T07:36:25.655Z,9.25
2022-12-11T07:38:52.918Z,9.25
2022-12-11T07:41:20.185Z,9.10
2022-12-11T07:43:47.984Z,9.48
2022-12-11T07:46:18.228Z,10.40
2022-12-11T07:48:47.130Z,9.60
2022-12-11T07:51:16.803Z,9.75
2022-12-11T07:53:45.186Z,9.60
2022-12-11T07:56:12.161Z,9.48
2022-12-11T07:58:39.005Z,9.48
2022-12-11T08:01:06.830Z,10.02
2022-12-11T08:03:33.665Z,9.30
2022-12-11T08:06:00.824Z,9.93
2022-12-11T08:08:27.738Z,12.00
2022-12-11T08:10:54.626Z,12.23
2022-12-11T08:13:21.351Z,12.48
2022-12-11T08:15:48.992Z,12.40
2022-12-11T08:18:15.730Z,13.18
2022-12-11T08:20:42.553Z,12.43
2022-12-11T08:23:09.445Z,11.70
2022-12-11T08:25:36.572Z,11.18
2022-12-11T08:28:03.818Z,11.75
2022-12-11T08:30:31.530Z,13.15
2022-12-11T08:32:59.858Z,12.40
2022-12-11T08:35:27.259Z,13.20
2022-12-11T08:37:54.013Z,13.55
2022-12-11T08:40:20.910Z,14.25
2022-12-11T08:42:47.750Z,12.70
2022-12-11T08:45:14.754Z,13.00
2022-12-11T08:47:41.900Z,13.80
2022-12-11T08:50:09.362Z,13.73
2022-12-11T08:52:36.154Z,13.90
2022-12-11T08:55:03.434Z,13.70
2022-12-11T08:57:30.270Z,13.07
2022-12-11T08:59:57.051Z,13.60
2022-12-11T09:02:23.972Z,13.02
2022-12-11T09:04:50.935Z,12.97
2022-12-11T09:07:17.848Z,12.80
2022-12-11T09:09:44.666Z,12.80
2022-12-11T09:12:11.473Z,13.10
2022-12-11T09:14:38.363Z,13.50
2022-12-11T09:17:05.508Z,13.57
2022-12-11T09:19:32.725Z,13.18
2022-12-11T09:21:59.638Z,14.20
2022-12-11T09:24:26.546Z,15.00
2022-12-11T09:26:54.583Z,14.90
2022-12-11T09:29:21.615Z,14.68
2022-12-11T09:31:49.551Z,14.10
2022-12-11T09:34:16.409Z,14.52
2022-12-11T09:36:44.315Z,14.70
2022-12-11T09:39:12.391Z,13.73
2022-12-11T09:42:03.603Z,14.60
2022-12-11T09:44:51.462Z,14.00
2022-12-11T09:47:44.022Z,11.90
2022-12-11T09:50:15.313Z,12.20
2022-12-11T09:53:05.229Z,12.20
2022-12-11T09:55:42.658Z,12.88
2022-12-11T09:58:30.591Z,12.80
2022-12-11T10:01:20.523Z,13.00
2022-12-11T10:04:15.652Z,12.83
2022-12-11T10:06:53.350Z,12.90
2022-12-11T10:09:30.758Z,13.63
2022-12-11T10:12:21.043Z,12.52
2022-12-11T10:15:12.622Z,13.93
2022-12-11T10:17:41.942Z,13.50
2022-12-11T10:20:28.039Z,12.90
2022-12-11T10:22:56.829Z,12.73
2022-12-11T10:25:41.690Z,13.90
2022-12-11T10:28:16.751Z,13.80
2022-12-11T10:30:53.247Z,13.63
2022-12-11T10:33:41.512Z,14.33
2022-12-11T10:36:09.938Z,13.23
2022-12-11T10:38:42.720Z,13.27
2022-12-11T10:41:17.458Z,14.80
2022-12-11T10:43:50.072Z,13.82
2022-12-11T10:46:26.323Z,13.88
2022-12-11T10:48:56.025Z,13.60
2022-12-11T10:51:26.502Z,14.65
2022-12-11T10:53:55.923Z,14.80
2022-12-11T10:56:30.588Z,14.02
2022-12-11T10:58:59.717Z,13.15
2022-12-11T11:01:30.932Z,12.82
2022-12-11T11:04:15.407Z,14.00
2022-12-11T11:06:42.312Z,13.10
2022-12-11T11:09:29.962Z,15.10
2022-12-11T11:11:56.992Z,13.80
2022-12-11T11:14:23.898Z,15.35
2022-12-11T11:16:52.706Z,16.05
2022-12-11T11:19:34.985Z,17.77
2022-12-11T11:22:21.591Z,15.73
2022-12-11T11:24:58.399Z,14.20
2022-12-11T11:27:42.279Z,16.60
2022-12-11T11:30:41.858Z,17.33
2022-12-11T11:33:19.498Z,19.00
2022-12-11T11:36:07.582Z,16.30
2022-12-11T11:38:41.019Z,16.30
2022-12-11T11:41:17.645Z,16.67
2022-12-11T11:43:48.865Z,16.08
2022-12-11T11:46:44.451Z,16.42
2022-12-11T11:49:34.305Z,16.85
2022-12-11T11:52:17.745Z,16.58
2022-12-11T11:55:22.174Z,16.83
2022-12-11T11:58:13.443Z,17.33
2022-12-11T12:00:40.361Z,15.63
2022-12-11T12:03:11.654Z,16.48
2022-12-11T12:06:14.860Z,16.83
2022-12-11T12:09:04.969Z,16.50
2022-12-11T12:11:49.518Z,15.67
2022-12-11T12:17:31.590Z,16.80
2022-12-11T12:20:23.924Z,16.17
2022-12-11T12:23:02.718Z,16.13
2022-12-11T12:25:40.754Z,17.10
2022-12-11T12:28:34.335Z,16.00
2022-12-11T12:31:26.059Z,17.25
2022-12-11T12:34:11.272Z,17.10
2022-12-11T12:37:02.445Z,16.87
2022-12-11T12:39:35.242Z,15.75
2022-12-11T12:42:37.678Z,16.45
2022-12-11T12:45:13.207Z,17.70
2022-12-11T12:47:43.208Z,16.25
2022-12-11T12:50:13.662Z,15.77
2022-12-11T12:52:41.592Z,15.40
2022-12-11T12:55:27.164Z,16.30
2022-12-11T12:58:00.670Z,16.05
2022-12-11T13:00:39.438Z,16.20
2022-12-11T13:03:21.856Z,16.10
2022-12-11T13:06:01.590Z,16.60
2022-12-11T13:08:42.103Z,15.45
2022-12-11T13:11:12.042Z,16.77
2022-12-11T13:13:54.521Z,16.60
2022-12-11T13:16:34.528Z,15.38
2022-12-11T13:19:01.465Z,15.35
2022-12-11T13:21:34.675Z,15.20
2022-12-11T13:24:34.273Z,14.80
2022-12-11T13:27:11.911Z,16.13
2022-12-11T13:29:42.617Z,14.35
2022-12-11T13:32:09.460Z,15.90
2022-12-11T13:34:42.203Z,14.70
2022-12-11T13:37:33.126Z,15.20
2022-12-11T13:40:03.453Z,16.35
2022-12-11T13:42:48.077Z,15.73
2022-12-11T13:45:25.945Z,15.60
2022-12-11T13:47:52.790Z,15.38
2022-12-11T13:50:25.547Z,16.40
2022-12-11T13:52:57.605Z,15.95
2022-12-11T13:55:33.142Z,16.20
2022-12-11T13:58:00.858Z,16.27
2022-12-11T14:00:32.905Z,16.90
2022-12-11T14:03:04.364Z,17.55
2022-12-11T14:05:31.542Z,18.10
2022-12-11T14:08:02.656Z,16.80
2022-12-11T14:10:33.099Z,17.00
2022-12-11T14:13:05.961Z,17.90
2022-12-11T14:15:35.239Z,17.90
2022-12-11T14:18:03.295Z,17.60
2022-12-11T14:20:33.238Z,17.52
2022-12-11T14:23:17.132Z,17.00
2022-12-11T14:25:53.299Z,17.20
2022-12-11T14:28:21.038Z,18.00
2022-12-11T14:30:51.601Z,16.40
2022-12-11T14:33:22.994Z,16.90
2022-12-11T14:35:52.164Z,16.23
2022-12-11T14:38:34.151Z,17.17
2022-12-11T14:41:06.262Z,17.33
2022-12-11T14:43:40.384Z,17.70
2022-12-11T14:46:15.560Z,17.08
2022-12-11T14:48:53.809Z,17.13
2022-12-11T14:51:24.056Z,16.70
2022-12-11T14:53:53.521Z,16.52
2022-12-11T14:56:27.426Z,17.85
2022-12-11T14:58:58.413Z,18.35
2022-12-11T15:01:30.387Z,18.45
2022-12-11T15:04:04.781Z,18.10
2022-12-11T15:06:33.504Z,17.90
2022-12-11T15:09:27.228Z,17.80
2022-12-11T15:12:00.410Z,17.80
2022-12-11T15:14:27.784Z,17.80
2022-12-11T15:16:57.333Z,17.48
2022-12-11T15:19:35.621Z,17.90
2022-12-11T15:22:07.895Z,17.30
2022-12-11T15:24:34.693Z,17.88
2022-12-11T15:27:02.180Z,17.70
2022-12-11T15:29:36.387Z,17.90
2022-12-11T15:32:14.329Z,18.15
2022-12-11T15:34:49.248Z,19.10
2022-12-11T15:37:21.584Z,18.73
2022-12-11T15:39:48.839Z,18.63
2022-12-11T15:42:30.018Z,18.48
2022-12-11T15:44:57.336Z,17.17
2022-12-11T15:47:28.369Z,17.92
2022-12-11T15:50:21.625Z,17.40
2022-12-11T15:52:53.486Z,18.00
2022-12-11T15:55:26.341Z,16.58
2022-12-11T15:57:59.316Z,17.52
2022-12-11T16:00:28.127Z,17.50
2022-12-11T16:02:58.670Z,18.08
2022-12-11T16:05:28.607Z,18.25
2022-12-11T16:07:59.431Z,19.77
2022-12-11T16:10:27.130Z,18.70
2022-12-11T16:12:59.237Z,19.60
2022-12-11T16:15:29.566Z,19.67
2022-12-11T16:18:05.903Z,19.70
2022-12-11T16:20:35.267Z,17.20
2022-12-11T16:23:02.598Z,19.15
2022-12-11T16:25:30.024Z,19.10
2022-12-11T16:27:58.414Z,17.70
2022-12-11T16:30:26.811Z,16.75
2022-12-11T16:32:54.263Z,14.30
2022-12-11T16:35:22.495Z,14.45
2022-12-11T16:37:50.887Z,16.65
2022-12-11T16:40:18.442Z,15.88
2022-12-11T16:42:45.740Z,23.23
2022-12-11T16:45:14.993Z,21.02
2022-12-11T16:47:42.399Z,19.33
2022-12-11T16:50:10.074Z,18.90
2022-12-11T16:52:36.940Z,18.13
2022-12-11T16:55:04.635Z,16.65
2022-12-11T16:57:31.582Z,16.10
2022-12-11T16:59:58.597Z,16.50
2022-12-11T17:02:25.593Z,15.80
2022-12-11T17:04:54.206Z,15.73
2022-12-11T17:07:21.149Z,15.67
2022-12-11T17:09:48.058Z,17.05
2022-12-11T17:12:15.018Z,17.08
2022-12-11T17:14:43.762Z,16.60
2022-12-11T17:17:10.643Z,28.77
2022-12-11T17:19:37.593Z,21.70
2022-12-11T17:22:04.662Z,22.50
2022-12-11T17:24:31.538Z,21.67
2022-12-11T17:26:59.688Z,25.17
2022-12-11T17:29:26.585Z,19.70
2022-12-11T17:31:53.544Z,20.27
2022-12-11T17:34:20.443Z,19.65
2022-12-11T17:36:47.330Z,19.95
2022-12-11T17:39:14.255Z,20.10
2022-12-11T17:41:41.061Z,19.37
2022-12-11T17:44:07.846Z,18.90
2022-12-11T17:46:34.816Z,18.23
2022-12-11T17:49:04.131Z,18.33
2022-12-11T17:51:31.027Z,17.88
2022-12-11T17:53:58.374Z,16.42
2022-12-11T17:56:26.005Z,16.15
2022-12-11T17:58:53.135Z,15.40
2022-12-11T18:01:20.400Z,14.32
2022-12-11T18:03:47.452Z,14.05
2022-12-11T18:06:15.906Z,15.75
2022-12-11T18:08:44.311Z,17.77
2022-12-11T18:11:17.005Z,15.95
2022-12-11T18:13:44.910Z,16.15
2022-12-11T18:16:19.241Z,16.35
2022-12-11T18:18:47.406Z,16.92
2022-12-11T18:21:20.579Z,17.50
2022-12-11T18:23:48.023Z,19.02
2022-12-11T18:26:14.990Z,18.10
2022-12-11T18:28:43.530Z,17.27
2022-12-11T18:31:10.917Z,17.90
2022-12-11T18:33:38.957Z,18.13
2022-12-11T18:36:06.379Z,17.13
2022-12-11T18:38:33.947Z,17.40
2022-12-11T18:41:05.501Z,19.05
2022-12-11T18:43:32.514Z,18.70
2022-12-11T18:45:59.522Z,19.00
2022-12-11T18:48:26.358Z,18.02
2022-12-11T18:50:53.319Z,19.40
2022-12-11T18:53:20.254Z,18.80
2022-12-11T18:55:48.715Z,20.23
2022-12-11T18:58:17.954Z,20.43
2022-12-11T19:00:45.646Z,19.35
2022-12-11T19:03:14.119Z,18.85
2022-12-11T19:05:43.652Z,21.00
2022-12-11T19:08:13.943Z,22.70
2022-12-11T19:10:43.377Z,20.70
2022-12-11T19:13:10.567Z,21.80
2022-12-11T19:15:39.528Z,22.35
2022-12-11T19:18:07.039Z,20.20
2022-12-11T19:20:49.277Z,21.40
2022-12-11T19:23:17.066Z,19.70
2022-12-11T19:25:48.477Z,20.00
2022-12-11T19:28:15.694Z,18.35
2022-12-11T19:30:48.855Z,18.02
2022-12-11T19:33:16.847Z,18.33
2022-12-11T19:35:44.410Z,19.33
2022-12-11T19:38:13.087Z,19.15
2022-12-11T19:40:45.659Z,18.85
2022-12-11T19:43:12.606Z,18.58
2022-12-11T19:45:39.407Z,20.10
2022-12-11T19:48:06.421Z,20.20
2022-12-11T19:50:36.286Z,20.15
2022-12-11T19:53:04.196Z,19.00
2022-12-11T19:55:31.073Z,19.20
2022-12-11T19:57:58.122Z,19.77
2022-12-11T20:00:24.978Z,20.35
2022-12-11T20:02:51.942Z,20.25
2022-12-11T20:05:18.986Z,22.40
2022-12-11T20:07:45.926Z,21.63
2022-12-11T20:10:12.963Z,22.63
2022-12-11T20:12:40.605Z,22.23
2022-12-11T20:15:08.041Z,22.75
2022-12-11T20:17:36.692Z,23.00
2022-12-11T20:20:03.962Z,23.40
2022-12-11T20:22:30.853Z,21.95
2022-12-11T20:24:57.678Z,22.97
2022-12-11T20:27:26.082Z,20.85
2022-12-11T20:29:52.911Z,20.15
2022-12-11T20:32:19.758Z,20.55
2022-12-11T20:34:46.633Z,19.80
2022-12-11T20:37:13.523Z,20.38
2022-12-11T20:39:40.456Z,20.90
2022-12-11T20:42:09.388Z,24.90
2022-12-11T20:44:36.227Z,23.65
2022-12-11T20:47:03.278Z,23.90
2022-12-11T20:49:30.109Z,25.60
2022-12-11T20:51:57.026Z,22.23
2022-12-11T20:54:24.005Z,22.02
2022-12-11T20:56:51.293Z,22.52
2022-12-11T20:59:18.771Z,22.73
2022-12-11T21:01:45.774Z,23.70
2022-12-11T21:04:12.810Z,20.90
2022-12-11T21:06:41.014Z,20.75
2022-12-11T21:09:12.146Z,19.02
2022-12-11T21:11:39.170Z,19.40
2022-12-11T21:14:06.622Z,19.23
2022-12-11T21:16:36.405Z,18.50
2022-12-11T21:19:04.442Z,17.73
2022-12-11T21:21:33.204Z,18.67
2022-12-11T21:24:00.177Z,18.08
2022-12-11T21:26:26.922Z,18.80
2022-12-11T21:28:53.826Z,20.00
2022-12-11T21:31:20.843Z,18.83
2022-12-11T21:33:48.295Z,18.27
2022-12-11T21:36:15.687Z,18.67
2022-12-11T21:38:44.219Z,17.88
2022-12-11T21:41:20.115Z,17.02
2022-12-11T21:45:14.629Z,17.23
2022-12-11T21:46:35.558Z,15.68
2022-12-11T21:49:02.457Z,15.57
2022-12-11T21:51:37.948Z,16.63
2022-12-11T21:54:09.192Z,17.27
2022-12-11T21:56:36.355Z,28.90
2022-12-11T21:59:03.411Z,21.73
2022-12-11T22:01:37.482Z,22.25
2022-12-11T22:04:06.678Z,20.73
2022-12-11T22:06:34.160Z,20.15
2022-12-11T22:09:02.412Z,19.55
2022-12-11T22:11:32.937Z,19.13
2022-12-11T22:13:59.932Z,18.30
2022-12-11T22:16:27.195Z,19.23
2022-12-11T22:18:54.295Z,18.40
2022-12-11T22:21:21.567Z,19.38
2022-12-11T22:23:50.665Z,19.05
2022-12-11T22:26:22.055Z,19.15
2022-12-11T22:28:49.095Z,17.70
2022-12-11T22:31:19.923Z,18.45
2022-12-11T22:33:47.498Z,19.70
2022-12-11T22:36:14.945Z,20.55
2022-12-11T22:38:41.870Z,20.95
2022-12-11T22:41:38.295Z,20.83
2022-12-11T22:44:05.247Z,19.60
2022-12-11T22:46:32.118Z,20.23
2022-12-11T22:48:59.415Z,21.03
2022-12-11T22:51:26.352Z,20.05
2022-12-11T22:53:53.096Z,20.07
2022-12-11T22:56:20.142Z,19.80
2022-12-11T22:58:47.138Z,20.27
2022-12-11T23:01:18.871Z,20.23
2022-12-11T23:03:46.809Z,20.45
2022-12-11T23:06:16.474Z,20.50
2022-12-11T23:08:43.860Z,19.98
2022-12-11T23:11:18.659Z,20.07
2022-12-11T23:13:45.586Z,20.10
2022-12-11T23:16:12.639Z,19.25
2022-12-11T23:18:39.682Z,18.60
2022-12-11T23:21:07.525Z,19.67
2022-12-11T23:23:34.951Z,17.88
2022-12-11T23:26:02.451Z,19.35
2022-12-11T23:28:29.241Z,19.95
2022-12-11T23:30:56.075Z,20.08
2022-12-11T23:33:23.202Z,19.40
2022-12-11T23:35:49.951Z,19.15
2022-12-11T23:38:17.524Z,20.75
2022-12-11T23:40:44.514Z,19.45
2022-12-11T23:43:11.441Z,19.88
2022-12-11T23:45:38.197Z,19.35
2022-12-11T23:48:05.055Z,20.53
2022-12-11T23:50:32.949Z,20.65
2022-12-11T23:53:00.307Z,19.52
2022-12-11T23:55:27.561Z,18.95
2022-12-11T23:57:54.529Z,18.40
